sensor_id;sensor_type;location;lat;lon;timestamp;temperature;humidity
44894;DHT22;30625;52.206;21.030;2022-12-07T00:01:34;1.80;99.90
44894;DHT22;30625;52.206;21.030;2022-12-07T00:04:02;1.80;99.90
44894;DHT22;30625;52.206;21.030;2022-12-07T00:06:33;1.90;99.90
44894;DHT22;30625;52.206;21.030;2022-12-07T00:08:59;1.80;99.90
44894;DHT22;30625;52.206;21.030;2022-12-07T00:11:25;1.00;99.90
44894;DHT22;30625;52.206;21.030;2022-12-07T00:13:53;1.90;99.90
44894;DHT22;30625;52.206;21.030;2022-12-07T00:16:22;1.90;99.90
44894;DHT22;30625;52.206;21.030;2022-12-07T00:18:48;2.00;99.90
44894;DHT22;30625;52.206;21.030;2022-12-07T00:21:15;1.90;99.90
44894;DHT22;30625;52.206;21.030;2022-12-07T00:23:43;2.00;99.90
44894;DHT22;30625;52.206;21.030;2022-12-07T00:26:10;2.00;99.90
44894;DHT22;30625;52.206;21.030;2022-12-07T00:28:36;2.10;99.90
44894;DHT22;30625;52.206;21.030;2022-12-07T00:31:07;2.10;99.90
44894;DHT22;30625;52.206;21.030;2022-12-07T00:33:35;2.10;99.90
44894;DHT22;30625;52.206;21.030;2022-12-07T00:36:03;2.10;99.90
44894;DHT22;30625;52.206;21.030;2022-12-07T00:38:31;2.10;99.90
44894;DHT22;30625;52.206;21.030;2022-12-07T00:41:03;2.20;99.90
44894;DHT22;30625;52.206;21.030;2022-12-07T00:43:29;2.30;99.90
44894;DHT22;30625;52.206;21.030;2022-12-07T00:45:55;2.30;99.90
44894;DHT22;30625;52.206;21.030;2022-12-07T00:48:22;2.20;99.90
44894;DHT22;30625;52.206;21.030;2022-12-07T00:50:48;2.30;99.90
44894;DHT22;30625;52.206;21.030;2022-12-07T00:53:14;2.40;99.90
44894;DHT22;30625;52.206;21.030;2022-12-07T00:55:39;2.40;99.90
44894;DHT22;30625;52.206;21.030;2022-12-07T00:58:05;2.40;99.90
44894;DHT22;30625;52.206;21.030;2022-12-07T01:00:32;2.40;99.90
44894;DHT22;30625;52.206;21.030;2022-12-07T01:02:59;2.40;99.90
44894;DHT22;30625;52.206;21.030;2022-12-07T01:05:25;2.40;99.90
44894;DHT22;30625;52.206;21.030;2022-12-07T01:07:50;2.50;99.90
44894;DHT22;30625;52.206;21.030;2022-12-07T01:10:16;2.50;99.90
44894;DHT22;30625;52.206;21.030;2022-12-07T01:12:42;2.60;99.90
44894;DHT22;30625;52.206;21.030;2022-12-07T01:15:08;2.60;99.90
44894;DHT22;30625;52.206;21.030;2022-12-07T01:17:34;2.50;99.90
44894;DHT22;30625;52.206;21.030;2022-12-07T01:20:00;2.60;99.90
44894;DHT22;30625;52.206;21.030;2022-12-07T01:22:26;2.60;99.90
44894;DHT22;30625;52.206;21.030;2022-12-07T01:24:52;2.60;99.90
44894;DHT22;30625;52.206;21.030;2022-12-07T01:27:18;2.70;99.90
44894;DHT22;30625;52.206;21.030;2022-12-07T01:29:44;2.70;99.90
44894;DHT22;30625;52.206;21.030;2022-12-07T01:32:10;2.70;99.90
44894;DHT22;30625;52.206;21.030;2022-12-07T01:34:35;2.60;99.90
44894;DHT22;30625;52.206;21.030;2022-12-07T01:37:01;2.70;99.90
44894;DHT22;30625;52.206;21.030;2022-12-07T01:39:27;2.80;99.90
44894;DHT22;30625;52.206;21.030;2022-12-07T01:41:53;2.70;99.90
44894;DHT22;30625;52.206;21.030;2022-12-07T01:44:27;2.80;99.90
44894;DHT22;30625;52.206;21.030;2022-12-07T01:47:02;2.80;99.90
44894;DHT22;30625;52.206;21.030;2022-12-07T01:52:03;2.80;99.90
44894;DHT22;30625;52.206;21.030;2022-12-07T01:54:33;2.80;99.90
44894;DHT22;30625;52.206;21.030;2022-12-07T01:56:59;2.90;99.90
44894;DHT22;30625;52.206;21.030;2022-12-07T01:59:25;2.80;99.90
44894;DHT22;30625;52.206;21.030;2022-12-07T02:01:52;2.80;99.90
44894;DHT22;30625;52.206;21.030;2022-12-07T02:04:18;2.80;99.90
44894;DHT22;30625;52.206;21.030;2022-12-07T02:06:45;2.80;99.90
44894;DHT22;30625;52.206;21.030;2022-12-07T02:09:12;2.80;99.90
44894;DHT22;30625;52.206;21.030;2022-12-07T02:11:38;2.80;99.90
44894;DHT22;30625;52.206;21.030;2022-12-07T02:14:04;2.90;99.90
44894;DHT22;30625;52.206;21.030;2022-12-07T02:30:33;2.80;99.90
44894;DHT22;30625;52.206;21.030;2022-12-07T02:36:26;2.90;99.90
44894;DHT22;30625;52.206;21.030;2022-12-07T02:38:58;2.80;99.90
44894;DHT22;30625;52.206;21.030;2022-12-07T02:43:58;2.80;99.90
44894;DHT22;30625;52.206;21.030;2022-12-07T02:46:29;2.80;99.90
44894;DHT22;30625;52.206;21.030;2022-12-07T02:48:57;2.80;99.90
44894;DHT22;30625;52.206;21.030;2022-12-07T02:51:25;3.80;99.90
44894;DHT22;30625;52.206;21.030;2022-12-07T02:53:51;2.80;99.90
44894;DHT22;30625;52.206;21.030;2022-12-07T03:00:04;2.70;99.90
44894;DHT22;30625;52.206;21.030;2022-12-07T03:08:18;2.70;99.90
44894;DHT22;30625;52.206;21.030;2022-12-07T03:11:06;2.80;99.90
44894;DHT22;30625;52.206;21.030;2022-12-07T03:13:56;2.70;99.90
44894;DHT22;30625;52.206;21.030;2022-12-07T03:16:30;2.70;99.90
44894;DHT22;30625;52.206;21.030;2022-12-07T03:19:04;2.70;99.90
44894;DHT22;30625;52.206;21.030;2022-12-07T03:21:44;2.70;99.90
44894;DHT22;30625;52.206;21.030;2022-12-07T03:24:53;2.70;99.90
44894;DHT22;30625;52.206;21.030;2022-12-07T03:27:27;2.60;99.90
44894;DHT22;30625;52.206;21.030;2022-12-07T03:32:35;2.60;99.90
44894;DHT22;30625;52.206;21.030;2022-12-07T03:35:22;2.60;99.90
44894;DHT22;30625;52.206;21.030;2022-12-07T03:38:04;2.60;99.90
44894;DHT22;30625;52.206;21.030;2022-12-07T03:40:48;2.60;99.90
44894;DHT22;30625;52.206;21.030;2022-12-07T03:43:17;2.50;99.90
44894;DHT22;30625;52.206;21.030;2022-12-07T03:48:44;2.50;99.90
44894;DHT22;30625;52.206;21.030;2022-12-07T03:54:49;2.40;99.90
44894;DHT22;30625;52.206;21.030;2022-12-07T03:57:17;2.40;99.90
44894;DHT22;30625;52.206;21.030;2022-12-07T03:59:44;2.30;99.90
44894;DHT22;30625;52.206;21.030;2022-12-07T04:02:12;2.30;99.90
44894;DHT22;30625;52.206;21.030;2022-12-07T04:04:39;2.30;99.90
44894;DHT22;30625;52.206;21.030;2022-12-07T04:07:05;2.30;99.90
44894;DHT22;30625;52.206;21.030;2022-12-07T04:09:30;2.30;99.90
44894;DHT22;30625;52.206;21.030;2022-12-07T04:11:59;2.30;99.90
44894;DHT22;30625;52.206;21.030;2022-12-07T04:14:25;2.20;99.90
44894;DHT22;30625;52.206;21.030;2022-12-07T04:16:54;2.20;99.90
44894;DHT22;30625;52.206;21.030;2022-12-07T04:19:25;2.20;99.90
44894;DHT22;30625;52.206;21.030;2022-12-07T04:21:51;2.10;99.90
44894;DHT22;30625;52.206;21.030;2022-12-07T04:24:17;2.20;99.90
44894;DHT22;30625;52.206;21.030;2022-12-07T04:26:43;2.10;99.90
44894;DHT22;30625;52.206;21.030;2022-12-07T04:29:09;2.10;99.90
44894;DHT22;30625;52.206;21.030;2022-12-07T04:31:36;2.20;99.90
44894;DHT22;30625;52.206;21.030;2022-12-07T04:34:02;2.20;99.90
44894;DHT22;30625;52.206;21.030;2022-12-07T04:36:28;2.20;99.90
44894;DHT22;30625;52.206;21.030;2022-12-07T04:38:54;2.10;99.90
44894;DHT22;30625;52.206;21.030;2022-12-07T04:41:21;2.20;99.90
44894;DHT22;30625;52.206;21.030;2022-12-07T04:43:56;2.10;99.90
44894;DHT22;30625;52.206;21.030;2022-12-07T04:46:23;2.10;99.90
44894;DHT22;30625;52.206;21.030;2022-12-07T04:48:50;2.20;99.90
44894;DHT22;30625;52.206;21.030;2022-12-07T04:51:20;2.10;99.90
44894;DHT22;30625;52.206;21.030;2022-12-07T04:53:46;2.10;99.90
44894;DHT22;30625;52.206;21.030;2022-12-07T04:56:13;2.10;99.90
44894;DHT22;30625;52.206;21.030;2022-12-07T04:58:38;2.10;99.90
44894;DHT22;30625;52.206;21.030;2022-12-07T05:01:04;2.10;99.90
44894;DHT22;30625;52.206;21.030;2022-12-07T05:03:30;2.10;99.90
44894;DHT22;30625;52.206;21.030;2022-12-07T05:05:55;2.10;99.90
44894;DHT22;30625;52.206;21.030;2022-12-07T05:08:21;2.10;99.90
44894;DHT22;30625;52.206;21.030;2022-12-07T05:10:48;2.10;99.90
44894;DHT22;30625;52.206;21.030;2022-12-07T05:13:14;2.00;99.90
44894;DHT22;30625;52.206;21.030;2022-12-07T05:15:40;2.00;99.90
44894;DHT22;30625;52.206;21.030;2022-12-07T05:18:06;2.10;99.90
44894;DHT22;30625;52.206;21.030;2022-12-07T05:20:31;2.00;99.90
44894;DHT22;30625;52.206;21.030;2022-12-07T05:22:57;2.00;99.90
44894;DHT22;30625;52.206;21.030;2022-12-07T05:25:23;2.00;99.90
44894;DHT22;30625;52.206;21.030;2022-12-07T05:27:49;2.00;99.90
44894;DHT22;30625;52.206;21.030;2022-12-07T05:30:15;1.90;99.90
44894;DHT22;30625;52.206;21.030;2022-12-07T05:32:41;1.90;99.90
44894;DHT22;30625;52.206;21.030;2022-12-07T05:35:07;1.80;99.90
44894;DHT22;30625;52.206;21.030;2022-12-07T05:37:33;1.80;99.90
44894;DHT22;30625;52.206;21.030;2022-12-07T05:39:58;1.80;99.90
44894;DHT22;30625;52.206;21.030;2022-12-07T05:42:24;1.70;99.90
44894;DHT22;30625;52.206;21.030;2022-12-07T05:44:50;1.70;99.90
44894;DHT22;30625;52.206;21.030;2022-12-07T05:47:16;1.70;99.90
44894;DHT22;30625;52.206;21.030;2022-12-07T05:49:42;1.70;99.90
44894;DHT22;30625;52.206;21.030;2022-12-07T05:52:07;1.60;99.90
44894;DHT22;30625;52.206;21.030;2022-12-07T05:54:33;1.70;99.90
44894;DHT22;30625;52.206;21.030;2022-12-07T05:56:59;1.70;99.90
44894;DHT22;30625;52.206;21.030;2022-12-07T05:59:25;2.00;99.90
44894;DHT22;30625;52.206;21.030;2022-12-07T06:04:21;1.70;99.90
44894;DHT22;30625;52.206;21.030;2022-12-07T06:06:47;1.80;99.90
44894;DHT22;30625;52.206;21.030;2022-12-07T06:09:13;1.80;99.90
44894;DHT22;30625;52.206;21.030;2022-12-07T06:11:39;1.70;99.90
44894;DHT22;30625;52.206;21.030;2022-12-07T06:14:24;1.70;99.90
44894;DHT22;30625;52.206;21.030;2022-12-07T06:16:50;1.70;99.90
44894;DHT22;30625;52.206;21.030;2022-12-07T06:19:16;1.70;99.90
44894;DHT22;30625;52.206;21.030;2022-12-07T06:21:42;1.60;99.90
44894;DHT22;30625;52.206;21.030;2022-12-07T06:24:12;1.70;99.90
44894;DHT22;30625;52.206;21.030;2022-12-07T06:26:39;1.60;99.90
44894;DHT22;30625;52.206;21.030;2022-12-07T06:29:05;1.60;99.90
44894;DHT22;30625;52.206;21.030;2022-12-07T06:31:31;1.50;99.90
44894;DHT22;30625;52.206;21.030;2022-12-07T06:34:11;1.50;99.90
44894;DHT22;30625;52.206;21.030;2022-12-07T06:36:37;1.50;99.90
44894;DHT22;30625;52.206;21.030;2022-12-07T06:39:04;1.60;99.90
44894;DHT22;30625;52.206;21.030;2022-12-07T06:41:30;1.50;99.90
44894;DHT22;30625;52.206;21.030;2022-12-07T06:43:56;1.60;99.90
44894;DHT22;30625;52.206;21.030;2022-12-07T06:46:22;1.50;99.90
44894;DHT22;30625;52.206;21.030;2022-12-07T06:48:49;1.50;99.90
44894;DHT22;30625;52.206;21.030;2022-12-07T06:51:14;1.60;99.90
44894;DHT22;30625;52.206;21.030;2022-12-07T06:53:40;1.60;99.90
44894;DHT22;30625;52.206;21.030;2022-12-07T06:56:06;1.60;99.90
44894;DHT22;30625;52.206;21.030;2022-12-07T06:58:32;1.50;99.90
44894;DHT22;30625;52.206;21.030;2022-12-07T07:00:58;1.50;99.90
44894;DHT22;30625;52.206;21.030;2022-12-07T07:03:24;1.50;99.90
44894;DHT22;30625;52.206;21.030;2022-12-07T07:05:49;1.50;99.90
44894;DHT22;30625;52.206;21.030;2022-12-07T07:08:15;1.50;99.90
44894;DHT22;30625;52.206;21.030;2022-12-07T07:10:41;1.50;99.90
44894;DHT22;30625;52.206;21.030;2022-12-07T07:13:07;1.40;99.90
44894;DHT22;30625;52.206;21.030;2022-12-07T07:15:33;1.50;99.90
44894;DHT22;30625;52.206;21.030;2022-12-07T07:17:59;1.50;99.90
44894;DHT22;30625;52.206;21.030;2022-12-07T07:20:25;1.50;99.90
44894;DHT22;30625;52.206;21.030;2022-12-07T07:22:54;1.50;99.90
44894;DHT22;30625;52.206;21.030;2022-12-07T07:25:20;1.60;99.90
44894;DHT22;30625;52.206;21.030;2022-12-07T07:27:45;1.60;99.90
44894;DHT22;30625;52.206;21.030;2022-12-07T07:30:11;1.50;99.90
44894;DHT22;30625;52.206;21.030;2022-12-07T07:32:37;1.50;99.90
44894;DHT22;30625;52.206;21.030;2022-12-07T07:35:03;1.60;99.90
44894;DHT22;30625;52.206;21.030;2022-12-07T07:37:29;1.50;99.90
44894;DHT22;30625;52.206;21.030;2022-12-07T07:39:55;1.50;99.90
44894;DHT22;30625;52.206;21.030;2022-12-07T07:42:20;1.50;99.90
44894;DHT22;30625;52.206;21.030;2022-12-07T07:44:47;1.60;99.90
44894;DHT22;30625;52.206;21.030;2022-12-07T07:47:12;1.60;99.90
44894;DHT22;30625;52.206;21.030;2022-12-07T07:49:38;1.60;99.90
44894;DHT22;30625;52.206;21.030;2022-12-07T07:52:05;1.60;99.90
44894;DHT22;30625;52.206;21.030;2022-12-07T07:54:31;1.70;99.90
44894;DHT22;30625;52.206;21.030;2022-12-07T07:56:57;1.70;99.90
44894;DHT22;30625;52.206;21.030;2022-12-07T07:59:23;1.70;99.90
44894;DHT22;30625;52.206;21.030;2022-12-07T08:01:50;1.80;99.90
44894;DHT22;30625;52.206;21.030;2022-12-07T08:04:15;1.80;99.90
44894;DHT22;30625;52.206;21.030;2022-12-07T08:06:41;1.80;99.90
44894;DHT22;30625;52.206;21.030;2022-12-07T08:09:08;1.70;99.90
44894;DHT22;30625;52.206;21.030;2022-12-07T08:11:34;1.80;99.90
44894;DHT22;30625;52.206;21.030;2022-12-07T08:14:01;1.80;99.90
44894;DHT22;30625;52.206;21.030;2022-12-07T08:16:27;1.80;99.90
44894;DHT22;30625;52.206;21.030;2022-12-07T08:18:53;1.90;99.90
44894;DHT22;30625;52.206;21.030;2022-12-07T08:21:19;1.90;99.90
44894;DHT22;30625;52.206;21.030;2022-12-07T08:23:45;2.00;99.90
44894;DHT22;30625;52.206;21.030;2022-12-07T08:26:14;2.00;99.90
44894;DHT22;30625;52.206;21.030;2022-12-07T08:28:40;2.00;99.90
44894;DHT22;30625;52.206;21.030;2022-12-07T08:31:09;2.00;99.90
44894;DHT22;30625;52.206;21.030;2022-12-07T08:33:36;2.00;99.90
44894;DHT22;30625;52.206;21.030;2022-12-07T08:36:08;2.00;99.90
44894;DHT22;30625;52.206;21.030;2022-12-07T08:38:35;2.00;99.90
44894;DHT22;30625;52.206;21.030;2022-12-07T08:41:01;2.00;99.90
44894;DHT22;30625;52.206;21.030;2022-12-07T08:43:27;2.00;99.90
44894;DHT22;30625;52.206;21.030;2022-12-07T08:48:37;2.10;99.90
44894;DHT22;30625;52.206;21.030;2022-12-07T08:51:04;2.20;99.90
44894;DHT22;30625;52.206;21.030;2022-12-07T08:53:30;2.20;99.90
44894;DHT22;30625;52.206;21.030;2022-12-07T08:55:56;2.30;99.90
44894;DHT22;30625;52.206;21.030;2022-12-07T08:58:24;2.30;99.90
44894;DHT22;30625;52.206;21.030;2022-12-07T09:00:50;2.30;99.90
44894;DHT22;30625;52.206;21.030;2022-12-07T09:03:15;2.40;99.90
44894;DHT22;30625;52.206;21.030;2022-12-07T09:05:41;2.50;99.90
44894;DHT22;30625;52.206;21.030;2022-12-07T09:08:08;2.50;99.90
44894;DHT22;30625;52.206;21.030;2022-12-07T09:10:33;2.50;99.90
44894;DHT22;30625;52.206;21.030;2022-12-07T09:12:59;2.50;99.90
44894;DHT22;30625;52.206;21.030;2022-12-07T09:15:29;2.50;99.90
44894;DHT22;30625;52.206;21.030;2022-12-07T09:17:55;2.60;99.90
44894;DHT22;30625;52.206;21.030;2022-12-07T09:20:21;2.60;99.90
44894;DHT22;30625;52.206;21.030;2022-12-07T09:22:47;2.60;99.90
44894;DHT22;30625;52.206;21.030;2022-12-07T09:25:13;2.60;99.90
44894;DHT22;30625;52.206;21.030;2022-12-07T09:27:39;2.60;99.90
44894;DHT22;30625;52.206;21.030;2022-12-07T09:30:05;2.70;99.90
44894;DHT22;30625;52.206;21.030;2022-12-07T09:32:31;2.70;99.90
44894;DHT22;30625;52.206;21.030;2022-12-07T09:34:57;2.70;99.90
44894;DHT22;30625;52.206;21.030;2022-12-07T09:37:22;2.80;99.90
44894;DHT22;30625;52.206;21.030;2022-12-07T09:39:48;2.80;99.90
44894;DHT22;30625;52.206;21.030;2022-12-07T09:42:33;2.80;99.90
44894;DHT22;30625;52.206;21.030;2022-12-07T09:45:00;2.70;99.90
44894;DHT22;30625;52.206;21.030;2022-12-07T09:47:27;2.70;99.90
44894;DHT22;30625;52.206;21.030;2022-12-07T09:50:00;2.80;99.90
44894;DHT22;30625;52.206;21.030;2022-12-07T09:52:28;2.70;99.90
44894;DHT22;30625;52.206;21.030;2022-12-07T09:54:55;2.80;99.90
44894;DHT22;30625;52.206;21.030;2022-12-07T09:57:28;2.80;99.90
44894;DHT22;30625;52.206;21.030;2022-12-07T10:00:01;2.80;99.90
44894;DHT22;30625;52.206;21.030;2022-12-07T10:02:39;2.80;99.90
44894;DHT22;30625;52.206;21.030;2022-12-07T10:05:14;2.80;99.90
44894;DHT22;30625;52.206;21.030;2022-12-07T10:07:41;2.80;99.90
44894;DHT22;30625;52.206;21.030;2022-12-07T10:10:14;2.90;99.90
44894;DHT22;30625;52.206;21.030;2022-12-07T10:13:05;2.90;99.90
44894;DHT22;30625;52.206;21.030;2022-12-07T10:18:19;2.80;99.90
44894;DHT22;30625;52.206;21.030;2022-12-07T10:20:46;2.90;99.90
44894;DHT22;30625;52.206;21.030;2022-12-07T10:23:17;2.90;99.90
44894;DHT22;30625;52.206;21.030;2022-12-07T10:25:44;2.90;99.90
44894;DHT22;30625;52.206;21.030;2022-12-07T10:28:16;2.90;99.90
44894;DHT22;30625;52.206;21.030;2022-12-07T10:30:55;3.00;99.90
44894;DHT22;30625;52.206;21.030;2022-12-07T10:33:36;2.90;99.90
44894;DHT22;30625;52.206;21.030;2022-12-07T10:36:24;2.90;99.90
44894;DHT22;30625;52.206;21.030;2022-12-07T10:41:30;2.90;99.90
44894;DHT22;30625;52.206;21.030;2022-12-07T10:43:57;2.90;99.90
44894;DHT22;30625;52.206;21.030;2022-12-07T10:51:58;2.90;99.90
44894;DHT22;30625;52.206;21.030;2022-12-07T11:11:14;2.90;99.90
44894;DHT22;30625;52.206;21.030;2022-12-07T11:13:48;3.00;99.90
44894;DHT22;30625;52.206;21.030;2022-12-07T11:22:13;3.00;99.90
44894;DHT22;30625;52.206;21.030;2022-12-07T11:25:13;3.00;99.90
44894;DHT22;30625;52.206;21.030;2022-12-07T11:27:57;3.00;99.90
44894;DHT22;30625;52.206;21.030;2022-12-07T11:30:42;3.00;99.90
44894;DHT22;30625;52.206;21.030;2022-12-07T11:33:27;2.90;99.90
44894;DHT22;30625;52.206;21.030;2022-12-07T11:38:57;2.90;99.90
44894;DHT22;30625;52.206;21.030;2022-12-07T11:41:28;3.00;99.90
44894;DHT22;30625;52.206;21.030;2022-12-07T11:46:43;3.00;99.90
44894;DHT22;30625;52.206;21.030;2022-12-07T11:49:23;3.00;99.90
44894;DHT22;30625;52.206;21.030;2022-12-07T11:51:54;3.00;99.90
44894;DHT22;30625;52.206;21.030;2022-12-07T11:54:30;3.00;99.90
44894;DHT22;30625;52.206;21.030;2022-12-07T11:57:04;3.00;99.90
44894;DHT22;30625;52.206;21.030;2022-12-07T11:59:39;3.00;99.90
44894;DHT22;30625;52.206;21.030;2022-12-07T12:07:45;3.10;99.90
44894;DHT22;30625;52.206;21.030;2022-12-07T12:10:22;3.10;99.90
44894;DHT22;30625;52.206;21.030;2022-12-07T12:21:04;3.00;99.90
44894;DHT22;30625;52.206;21.030;2022-12-07T12:23:56;3.00;99.90
44894;DHT22;30625;52.206;21.030;2022-12-07T12:26:26;3.00;99.90
44894;DHT22;30625;52.206;21.030;2022-12-07T12:29:02;3.00;99.90
44894;DHT22;30625;52.206;21.030;2022-12-07T12:34:04;3.00;99.90
44894;DHT22;30625;52.206;21.030;2022-12-07T12:50:20;3.00;99.90
44894;DHT22;30625;52.206;21.030;2022-12-07T12:52:54;2.90;99.90
44894;DHT22;30625;52.206;21.030;2022-12-07T12:58:39;2.80;99.90
44894;DHT22;30625;52.206;21.030;2022-12-07T13:01:33;2.90;99.90
44894;DHT22;30625;52.206;21.030;2022-12-07T13:04:03;2.80;99.90
44894;DHT22;30625;52.206;21.030;2022-12-07T13:06:35;2.80;99.90
44894;DHT22;30625;52.206;21.030;2022-12-07T13:09:03;2.80;99.90
44894;DHT22;30625;52.206;21.030;2022-12-07T13:11:32;2.80;99.90
44894;DHT22;30625;52.206;21.030;2022-12-07T13:14:39;2.80;99.90
44894;DHT22;30625;52.206;21.030;2022-12-07T13:17:12;2.70;99.90
44894;DHT22;30625;52.206;21.030;2022-12-07T13:19:55;2.70;99.90
44894;DHT22;30625;52.206;21.030;2022-12-07T13:25:21;2.80;99.90
44894;DHT22;30625;52.206;21.030;2022-12-07T13:28:02;2.80;99.90
44894;DHT22;30625;52.206;21.030;2022-12-07T13:30:33;2.70;99.90
44894;DHT22;30625;52.206;21.030;2022-12-07T13:33:08;2.80;99.90
44894;DHT22;30625;52.206;21.030;2022-12-07T13:35:35;2.80;99.90
44894;DHT22;30625;52.206;21.030;2022-12-07T13:38:13;2.80;99.90
44894;DHT22;30625;52.206;21.030;2022-12-07T13:40:40;2.70;99.90
44894;DHT22;30625;52.206;21.030;2022-12-07T13:43:14;2.70;99.90
44894;DHT22;30625;52.206;21.030;2022-12-07T13:45:41;2.70;99.90
44894;DHT22;30625;52.206;21.030;2022-12-07T13:51:02;2.70;99.90
44894;DHT22;30625;52.206;21.030;2022-12-07T13:53:29;2.70;99.90
44894;DHT22;30625;52.206;21.030;2022-12-07T13:55:59;2.70;99.90
44894;DHT22;30625;52.206;21.030;2022-12-07T13:58:27;2.70;99.90
44894;DHT22;30625;52.206;21.030;2022-12-07T14:00:55;2.70;99.90
44894;DHT22;30625;52.206;21.030;2022-12-07T14:03:33;2.60;99.90
44894;DHT22;30625;52.206;21.030;2022-12-07T14:08:36;2.60;99.90
44894;DHT22;30625;52.206;21.030;2022-12-07T14:11:02;2.60;99.90
44894;DHT22;30625;52.206;21.030;2022-12-07T14:13:40;2.60;99.90
44894;DHT22;30625;52.206;21.030;2022-12-07T14:16:26;2.60;99.90
44894;DHT22;30625;52.206;21.030;2022-12-07T14:18:54;2.40;99.90
44894;DHT22;30625;52.206;21.030;2022-12-07T14:21:23;2.40;99.90
44894;DHT22;30625;52.206;21.030;2022-12-07T14:24:18;2.40;99.90
44894;DHT22;30625;52.206;21.030;2022-12-07T14:26:46;2.40;99.90
44894;DHT22;30625;52.206;21.030;2022-12-07T14:29:38;2.40;99.90
44894;DHT22;30625;52.206;21.030;2022-12-07T14:32:24;2.40;99.90
44894;DHT22;30625;52.206;21.030;2022-12-07T14:35:09;2.40;99.90
44894;DHT22;30625;52.206;21.030;2022-12-07T14:37:36;2.30;99.90
44894;DHT22;30625;52.206;21.030;2022-12-07T14:40:03;2.40;99.90
44894;DHT22;30625;52.206;21.030;2022-12-07T14:42:30;2.30;99.90
44894;DHT22;30625;52.206;21.030;2022-12-07T14:44:57;2.30;99.90
44894;DHT22;30625;52.206;21.030;2022-12-07T14:47:24;2.20;99.90
44894;DHT22;30625;52.206;21.030;2022-12-07T14:49:50;2.20;99.90
44894;DHT22;30625;52.206;21.030;2022-12-07T14:52:25;2.20;99.90
44894;DHT22;30625;52.206;21.030;2022-12-07T14:54:52;2.10;99.90
44894;DHT22;30625;52.206;21.030;2022-12-07T14:57:18;2.10;99.90
44894;DHT22;30625;52.206;21.030;2022-12-07T14:59:44;2.10;99.90
44894;DHT22;30625;52.206;21.030;2022-12-07T15:02:15;2.00;99.90
44894;DHT22;30625;52.206;21.030;2022-12-07T15:04:41;2.00;99.90
44894;DHT22;30625;52.206;21.030;2022-12-07T15:07:20;2.00;99.90
44894;DHT22;30625;52.206;21.030;2022-12-07T15:09:55;1.90;99.90
44894;DHT22;30625;52.206;21.030;2022-12-07T15:12:21;1.90;99.90
44894;DHT22;30625;52.206;21.030;2022-12-07T15:14:47;1.80;99.90
44894;DHT22;30625;52.206;21.030;2022-12-07T15:17:12;1.80;99.90
44894;DHT22;30625;52.206;21.030;2022-12-07T15:19:38;1.80;99.90
44894;DHT22;30625;52.206;21.030;2022-12-07T15:22:04;1.80;99.90
44894;DHT22;30625;52.206;21.030;2022-12-07T15:24:30;1.80;99.90
44894;DHT22;30625;52.206;21.030;2022-12-07T15:26:56;1.80;99.90
44894;DHT22;30625;52.206;21.030;2022-12-07T15:29:22;1.90;99.90
44894;DHT22;30625;52.206;21.030;2022-12-07T15:31:50;1.90;99.90
44894;DHT22;30625;52.206;21.030;2022-12-07T15:34:19;1.90;99.90
44894;DHT22;30625;52.206;21.030;2022-12-07T15:36:45;1.90;99.90
44894;DHT22;30625;52.206;21.030;2022-12-07T15:39:11;1.90;99.90
44894;DHT22;30625;52.206;21.030;2022-12-07T15:41:39;1.90;99.90
44894;DHT22;30625;52.206;21.030;2022-12-07T15:44:05;1.90;99.90
44894;DHT22;30625;52.206;21.030;2022-12-07T15:46:50;2.00;99.90
44894;DHT22;30625;52.206;21.030;2022-12-07T15:49:18;1.90;99.90
44894;DHT22;30625;52.206;21.030;2022-12-07T15:51:45;1.90;99.90
44894;DHT22;30625;52.206;21.030;2022-12-07T15:54:31;1.90;99.90
44894;DHT22;30625;52.206;21.030;2022-12-07T15:56:58;1.90;99.90
44894;DHT22;30625;52.206;21.030;2022-12-07T15:59:26;1.90;99.90
44894;DHT22;30625;52.206;21.030;2022-12-07T16:01:52;1.90;99.90
44894;DHT22;30625;52.206;21.030;2022-12-07T16:04:18;2.00;99.90
44894;DHT22;30625;52.206;21.030;2022-12-07T16:06:44;2.00;99.90
44894;DHT22;30625;52.206;21.030;2022-12-07T16:09:10;2.00;99.90
44894;DHT22;30625;52.206;21.030;2022-12-07T16:11:36;2.00;99.90
44894;DHT22;30625;52.206;21.030;2022-12-07T16:14:02;2.00;99.90
44894;DHT22;30625;52.206;21.030;2022-12-07T16:16:28;2.00;99.90
44894;DHT22;30625;52.206;21.030;2022-12-07T16:18:54;2.00;99.90
44894;DHT22;30625;52.206;21.030;2022-12-07T16:21:19;2.10;99.90
44894;DHT22;30625;52.206;21.030;2022-12-07T16:23:45;2.10;99.90
44894;DHT22;30625;52.206;21.030;2022-12-07T16:26:13;2.10;99.90
44894;DHT22;30625;52.206;21.030;2022-12-07T16:28:40;2.10;99.90
44894;DHT22;30625;52.206;21.030;2022-12-07T16:31:12;2.20;99.90
44894;DHT22;30625;52.206;21.030;2022-12-07T16:33:39;2.20;99.90
44894;DHT22;30625;52.206;21.030;2022-12-07T16:36:07;2.30;99.90
44894;DHT22;30625;52.206;21.030;2022-12-07T16:38:33;2.20;99.90
44894;DHT22;30625;52.206;21.030;2022-12-07T16:40:59;2.20;99.90
44894;DHT22;30625;52.206;21.030;2022-12-07T16:43:25;2.20;99.90
44894;DHT22;30625;52.206;21.030;2022-12-07T16:45:51;2.20;99.90
44894;DHT22;30625;52.206;21.030;2022-12-07T16:48:17;2.20;99.90
44894;DHT22;30625;52.206;21.030;2022-12-07T16:50:43;2.20;99.90
44894;DHT22;30625;52.206;21.030;2022-12-07T16:53:10;2.30;99.90
44894;DHT22;30625;52.206;21.030;2022-12-07T16:55:40;2.20;99.90
44894;DHT22;30625;52.206;21.030;2022-12-07T16:58:07;2.30;99.90
44894;DHT22;30625;52.206;21.030;2022-12-07T17:00:33;2.30;99.90
44894;DHT22;30625;52.206;21.030;2022-12-07T17:02:58;2.30;99.90
44894;DHT22;30625;52.206;21.030;2022-12-07T17:05:25;2.30;99.90
44894;DHT22;30625;52.206;21.030;2022-12-07T17:07:52;2.30;99.90
44894;DHT22;30625;52.206;21.030;2022-12-07T17:10:18;2.30;99.90
44894;DHT22;30625;52.206;21.030;2022-12-07T17:12:43;2.30;99.90
44894;DHT22;30625;52.206;21.030;2022-12-07T17:15:10;2.30;99.90
44894;DHT22;30625;52.206;21.030;2022-12-07T17:17:44;2.30;99.90
44894;DHT22;30625;52.206;21.030;2022-12-07T17:20:10;2.30;99.90
44894;DHT22;30625;52.206;21.030;2022-12-07T17:22:36;2.30;99.90
44894;DHT22;30625;52.206;21.030;2022-12-07T17:25:03;2.30;99.90
44894;DHT22;30625;52.206;21.030;2022-12-07T17:27:30;2.30;99.90
44894;DHT22;30625;52.206;21.030;2022-12-07T17:29:56;2.30;99.90
44894;DHT22;30625;52.206;21.030;2022-12-07T17:32:21;2.40;99.90
44894;DHT22;30625;52.206;21.030;2022-12-07T17:34:47;2.40;99.90
44894;DHT22;30625;52.206;21.030;2022-12-07T17:37:13;2.40;99.90
44894;DHT22;30625;52.206;21.030;2022-12-07T17:39:39;2.40;99.90
44894;DHT22;30625;52.206;21.030;2022-12-07T17:42:05;2.30;99.90
44894;DHT22;30625;52.206;21.030;2022-12-07T17:44:49;2.30;99.90
44894;DHT22;30625;52.206;21.030;2022-12-07T17:47:15;2.40;99.90
44894;DHT22;30625;52.206;21.030;2022-12-07T17:49:43;2.40;99.90